sensor_id;sensor_type;location;lat;lon;timestamp;temperature;humidity
77829;DHT22;67019;51.034;3.728;2023-04-24T00:01:29;8.80;99.90
77829;DHT22;67019;51.034;3.728;2023-04-24T00:03:58;8.70;99.90
77829;DHT22;67019;51.034;3.728;2023-04-24T00:06:26;8.80;99.90
77829;DHT22;67019;51.034;3.728;2023-04-24T00:09:01;8.80;99.90
77829;DHT22;67019;51.034;3.728;2023-04-24T00:11:30;8.70;99.90
77829;DHT22;67019;51.034;3.728;2023-04-24T00:13:57;8.70;99.90
77829;DHT22;67019;51.034;3.728;2023-04-24T00:16:25;8.80;99.90
77829;DHT22;67019;51.034;3.728;2023-04-24T00:18:53;8.70;99.90
77829;DHT22;67019;51.034;3.728;2023-04-24T00:21:20;8.80;99.90
77829;DHT22;67019;51.034;3.728;2023-04-24T00:23:50;8.80;99.90
77829;DHT22;67019;51.034;3.728;2023-04-24T00:26:17;8.80;99.90
77829;DHT22;67019;51.034;3.728;2023-04-24T00:28:45;8.80;99.90
77829;DHT22;67019;51.034;3.728;2023-04-24T00:31:14;8.80;99.90
77829;DHT22;67019;51.034;3.728;2023-04-24T00:33:41;8.80;99.90
77829;DHT22;67019;51.034;3.728;2023-04-24T00:36:09;8.80;99.90
77829;DHT22;67019;51.034;3.728;2023-04-24T00:38:37;8.70;99.90
77829;DHT22;67019;51.034;3.728;2023-04-24T00:41:04;8.70;99.90
77829;DHT22;67019;51.034;3.728;2023-04-24T00:43:32;8.60;99.90
77829;DHT22;67019;51.034;3.728;2023-04-24T00:46:00;8.60;99.90
77829;DHT22;67019;51.034;3.728;2023-04-24T00:48:28;8.60;99.90
77829;DHT22;67019;51.034;3.728;2023-04-24T00:50:56;8.60;99.90
77829;DHT22;67019;51.034;3.728;2023-04-24T00:53:25;8.60;99.90
77829;DHT22;67019;51.034;3.728;2023-04-24T00:55:52;8.60;99.90
77829;DHT22;67019;51.034;3.728;2023-04-24T00:58:20;8.60;99.90
77829;DHT22;67019;51.034;3.728;2023-04-24T01:00:49;8.60;99.90
77829;DHT22;67019;51.034;3.728;2023-04-24T01:03:28;8.60;99.90
77829;DHT22;67019;51.034;3.728;2023-04-24T01:05:53;8.60;99.90
77829;DHT22;67019;51.034;3.728;2023-04-24T01:08:23;8.60;99.90
77829;DHT22;67019;51.034;3.728;2023-04-24T01:10:55;8.50;99.90
77829;DHT22;67019;51.034;3.728;2023-04-24T01:13:24;8.40;99.90
77829;DHT22;67019;51.034;3.728;2023-04-24T01:15:52;8.50;99.90
77829;DHT22;67019;51.034;3.728;2023-04-24T01:18:19;8.40;99.90
77829;DHT22;67019;51.034;3.728;2023-04-24T01:20:50;8.30;99.90
77829;DHT22;67019;51.034;3.728;2023-04-24T01:23:19;8.30;99.90
77829;DHT22;67019;51.034;3.728;2023-04-24T01:25:47;8.30;99.90
77829;DHT22;67019;51.034;3.728;2023-04-24T01:28:16;8.30;99.90
77829;DHT22;67019;51.034;3.728;2023-04-24T01:30:45;8.30;99.90
77829;DHT22;67019;51.034;3.728;2023-04-24T01:33:13;8.30;99.90
77829;DHT22;67019;51.034;3.728;2023-04-24T01:35:42;8.20;99.90
77829;DHT22;67019;51.034;3.728;2023-04-24T01:38:10;8.20;99.90
77829;DHT22;67019;51.034;3.728;2023-04-24T01:40:38;8.20;99.90
77829;DHT22;67019;51.034;3.728;2023-04-24T01:43:05;8.20;99.90
77829;DHT22;67019;51.034;3.728;2023-04-24T01:45:33;8.20;99.90
77829;DHT22;67019;51.034;3.728;2023-04-24T01:48:01;8.10;99.90
77829;DHT22;67019;51.034;3.728;2023-04-24T01:50:28;8.10;99.90
77829;DHT22;67019;51.034;3.728;2023-04-24T01:52:58;8.00;99.90
77829;DHT22;67019;51.034;3.728;2023-04-24T01:55:26;8.00;99.90
77829;DHT22;67019;51.034;3.728;2023-04-24T01:57:55;8.10;99.90
77829;DHT22;67019;51.034;3.728;2023-04-24T02:00:23;8.10;99.90
77829;DHT22;67019;51.034;3.728;2023-04-24T02:02:51;8.10;99.90
77829;DHT22;67019;51.034;3.728;2023-04-24T02:05:19;8.00;99.90
77829;DHT22;67019;51.034;3.728;2023-04-24T02:07:46;8.00;99.90
77829;DHT22;67019;51.034;3.728;2023-04-24T02:10:14;8.00;99.90
77829;DHT22;67019;51.034;3.728;2023-04-24T02:12:42;8.00;99.90
77829;DHT22;67019;51.034;3.728;2023-04-24T02:15:10;8.00;99.90
77829;DHT22;67019;51.034;3.728;2023-04-24T02:17:38;8.00;99.90
77829;DHT22;67019;51.034;3.728;2023-04-24T02:20:07;8.00;99.90
77829;DHT22;67019;51.034;3.728;2023-04-24T02:22:35;7.90;99.90
77829;DHT22;67019;51.034;3.728;2023-04-24T02:25:03;8.00;99.90
77829;DHT22;67019;51.034;3.728;2023-04-24T02:27:30;8.00;99.90
77829;DHT22;67019;51.034;3.728;2023-04-24T02:29:58;7.90;99.90
77829;DHT22;67019;51.034;3.728;2023-04-24T02:32:26;8.00;99.90
77829;DHT22;67019;51.034;3.728;2023-04-24T02:34:54;7.90;99.90
77829;DHT22;67019;51.034;3.728;2023-04-24T02:37:22;8.00;99.90
77829;DHT22;67019;51.034;3.728;2023-04-24T02:39:49;8.00;99.90
77829;DHT22;67019;51.034;3.728;2023-04-24T02:42:17;8.00;99.90
77829;DHT22;67019;51.034;3.728;2023-04-24T02:44:44;8.00;99.90
77829;DHT22;67019;51.034;3.728;2023-04-24T02:47:12;8.10;99.90
77829;DHT22;67019;51.034;3.728;2023-04-24T02:49:40;8.20;99.90
77829;DHT22;67019;51.034;3.728;2023-04-24T02:52:08;8.20;99.90
77829;DHT22;67019;51.034;3.728;2023-04-24T02:54:36;8.30;99.90
77829;DHT22;67019;51.034;3.728;2023-04-24T02:57:03;8.40;99.90
77829;DHT22;67019;51.034;3.728;2023-04-24T02:59:31;8.40;99.90
77829;DHT22;67019;51.034;3.728;2023-04-24T03:01:58;8.50;99.90
77829;DHT22;67019;51.034;3.728;2023-04-24T03:04:30;8.50;99.90
77829;DHT22;67019;51.034;3.728;2023-04-24T03:10:21;8.50;99.90
77829;DHT22;67019;51.034;3.728;2023-04-24T03:12:49;8.50;99.90
77829;DHT22;67019;51.034;3.728;2023-04-24T03:15:17;8.70;99.90
77829;DHT22;67019;51.034;3.728;2023-04-24T03:21:07;8.50;99.90
77829;DHT22;67019;51.034;3.728;2023-04-24T03:26:56;8.70;99.90
77829;DHT22;67019;51.034;3.728;2023-04-24T03:29:25;8.30;99.90
77829;DHT22;67019;51.034;3.728;2023-04-24T03:31:53;8.30;99.90
77829;DHT22;67019;51.034;3.728;2023-04-24T03:37:43;8.30;99.90
77829;DHT22;67019;51.034;3.728;2023-04-24T03:40:11;8.40;99.90
77829;DHT22;67019;51.034;3.728;2023-04-24T03:42:38;8.30;99.90
77829;DHT22;67019;51.034;3.728;2023-04-24T03:45:07;8.30;99.90
77829;DHT22;67019;51.034;3.728;2023-04-24T03:47:34;8.30;99.90
77829;DHT22;67019;51.034;3.728;2023-04-24T03:50:03;8.40;99.90
77829;DHT22;67019;51.034;3.728;2023-04-24T03:52:30;8.40;99.90
77829;DHT22;67019;51.034;3.728;2023-04-24T03:54:58;8.30;99.90
77829;DHT22;67019;51.034;3.728;2023-04-24T03:57:26;8.30;99.90
77829;DHT22;67019;51.034;3.728;2023-04-24T03:59:53;8.30;99.90
77829;DHT22;67019;51.034;3.728;2023-04-24T04:02:21;8.30;99.90
77829;DHT22;67019;51.034;3.728;2023-04-24T04:04:49;8.20;99.90
77829;DHT22;67019;51.034;3.728;2023-04-24T04:07:17;8.20;99.90
77829;DHT22;67019;51.034;3.728;2023-04-24T04:09:45;8.10;99.90
77829;DHT22;67019;51.034;3.728;2023-04-24T04:12:12;8.20;99.90
77829;DHT22;67019;51.034;3.728;2023-04-24T04:14:40;8.10;99.90
77829;DHT22;67019;51.034;3.728;2023-04-24T04:17:07;8.00;99.90
77829;DHT22;67019;51.034;3.728;2023-04-24T04:19:35;8.10;99.90
77829;DHT22;67019;51.034;3.728;2023-04-24T04:22:03;8.10;99.90
77829;DHT22;67019;51.034;3.728;2023-04-24T04:24:31;8.10;99.90
77829;DHT22;67019;51.034;3.728;2023-04-24T04:26:58;8.10;99.90
77829;DHT22;67019;51.034;3.728;2023-04-24T04:29:26;7.90;99.90
77829;DHT22;67019;51.034;3.728;2023-04-24T04:31:54;8.00;99.90
77829;DHT22;67019;51.034;3.728;2023-04-24T04:34:22;8.00;99.90
77829;DHT22;67019;51.034;3.728;2023-04-24T04:36:49;8.00;99.90
77829;DHT22;67019;51.034;3.728;2023-04-24T04:39:17;7.90;99.90
77829;DHT22;67019;51.034;3.728;2023-04-24T04:41:45;8.00;99.90
77829;DHT22;67019;51.034;3.728;2023-04-24T04:44:15;8.00;99.90
77829;DHT22;67019;51.034;3.728;2023-04-24T04:46:43;7.90;99.90
77829;DHT22;67019;51.034;3.728;2023-04-24T04:49:10;7.80;99.90
77829;DHT22;67019;51.034;3.728;2023-04-24T04:51:39;7.80;99.90
77829;DHT22;67019;51.034;3.728;2023-04-24T04:54:07;7.80;99.90
77829;DHT22;67019;51.034;3.728;2023-04-24T04:56:34;7.80;99.90
77829;DHT22;67019;51.034;3.728;2023-04-24T04:59:02;7.70;99.90
77829;DHT22;67019;51.034;3.728;2023-04-24T05:01:30;7.80;99.90
77829;DHT22;67019;51.034;3.728;2023-04-24T05:03:57;7.80;99.90
77829;DHT22;67019;51.034;3.728;2023-04-24T05:06:25;7.70;99.90
77829;DHT22;67019;51.034;3.728;2023-04-24T05:08:54;7.70;99.90
77829;DHT22;67019;51.034;3.728;2023-04-24T05:11:24;7.70;99.90
77829;DHT22;67019;51.034;3.728;2023-04-24T05:13:52;7.70;99.90
77829;DHT22;67019;51.034;3.728;2023-04-24T05:16:19;7.70;99.90
77829;DHT22;67019;51.034;3.728;2023-04-24T05:18:48;7.70;99.90
77829;DHT22;67019;51.034;3.728;2023-04-24T05:21:17;7.70;99.90
77829;DHT22;67019;51.034;3.728;2023-04-24T05:23:45;7.70;99.90
77829;DHT22;67019;51.034;3.728;2023-04-24T05:26:13;7.70;99.90
77829;DHT22;67019;51.034;3.728;2023-04-24T05:28:41;7.80;99.90
77829;DHT22;67019;51.034;3.728;2023-04-24T05:31:09;7.70;99.90
77829;DHT22;67019;51.034;3.728;2023-04-24T05:33:37;7.60;99.90
77829;DHT22;67019;51.034;3.728;2023-04-24T05:36:06;7.70;99.90
77829;DHT22;67019;51.034;3.728;2023-04-24T05:38:34;7.80;99.90
77829;DHT22;67019;51.034;3.728;2023-04-24T05:41:02;7.90;99.90
77829;DHT22;67019;51.034;3.728;2023-04-24T05:43:30;7.90;99.90
77829;DHT22;67019;51.034;3.728;2023-04-24T05:45:58;7.80;99.90
77829;DHT22;67019;51.034;3.728;2023-04-24T05:48:25;7.70;99.90
77829;DHT22;67019;51.034;3.728;2023-04-24T05:50:53;7.70;99.90
77829;DHT22;67019;51.034;3.728;2023-04-24T05:53:20;7.70;99.90
77829;DHT22;67019;51.034;3.728;2023-04-24T05:55:48;7.80;99.90
77829;DHT22;67019;51.034;3.728;2023-04-24T05:58:16;7.80;99.90
77829;DHT22;67019;51.034;3.728;2023-04-24T06:00:43;7.90;99.90
77829;DHT22;67019;51.034;3.728;2023-04-24T06:03:12;7.90;99.90
77829;DHT22;67019;51.034;3.728;2023-04-24T06:05:40;7.90;99.90
77829;DHT22;67019;51.034;3.728;2023-04-24T06:08:08;7.70;99.90
77829;DHT22;67019;51.034;3.728;2023-04-24T06:10:35;7.90;99.90
77829;DHT22;67019;51.034;3.728;2023-04-24T06:13:03;8.00;99.90
77829;DHT22;67019;51.034;3.728;2023-04-24T06:15:31;8.00;99.90
77829;DHT22;67019;51.034;3.728;2023-04-24T06:18:06;8.10;99.90
77829;DHT22;67019;51.034;3.728;2023-04-24T06:20:33;8.10;99.90
77829;DHT22;67019;51.034;3.728;2023-04-24T06:23:01;8.10;99.90
77829;DHT22;67019;51.034;3.728;2023-04-24T06:25:29;8.20;99.90
77829;DHT22;67019;51.034;3.728;2023-04-24T06:27:57;8.20;99.90
77829;DHT22;67019;51.034;3.728;2023-04-24T06:30:24;8.20;99.90
77829;DHT22;67019;51.034;3.728;2023-04-24T06:32:53;8.30;99.90
77829;DHT22;67019;51.034;3.728;2023-04-24T06:35:21;8.40;99.90
77829;DHT22;67019;51.034;3.728;2023-04-24T06:37:49;8.40;99.90
77829;DHT22;67019;51.034;3.728;2023-04-24T06:40:16;8.50;99.90
77829;DHT22;67019;51.034;3.728;2023-04-24T06:42:45;8.50;99.90
77829;DHT22;67019;51.034;3.728;2023-04-24T06:45:12;8.60;99.90
77829;DHT22;67019;51.034;3.728;2023-04-24T06:47:40;8.40;99.90
77829;DHT22;67019;51.034;3.728;2023-04-24T06:50:08;8.40;99.90
77829;DHT22;67019;51.034;3.728;2023-04-24T06:52:36;8.50;99.90
77829;DHT22;67019;51.034;3.728;2023-04-24T06:55:04;8.50;99.90
77829;DHT22;67019;51.034;3.728;2023-04-24T06:57:32;8.70;99.90
77829;DHT22;67019;51.034;3.728;2023-04-24T07:00:00;8.80;99.90
77829;DHT22;67019;51.034;3.728;2023-04-24T07:02:27;8.80;99.90
77829;DHT22;67019;51.034;3.728;2023-04-24T07:04:55;8.60;99.90
77829;DHT22;67019;51.034;3.728;2023-04-24T07:07:23;8.70;99.90
77829;DHT22;67019;51.034;3.728;2023-04-24T07:09:51;8.70;99.90
77829;DHT22;67019;51.034;3.728;2023-04-24T07:12:20;8.60;99.90
77829;DHT22;67019;51.034;3.728;2023-04-24T07:14:48;8.70;99.90
77829;DHT22;67019;51.034;3.728;2023-04-24T07:17:16;8.80;99.90
77829;DHT22;67019;51.034;3.728;2023-04-24T07:19:43;8.70;99.90
77829;DHT22;67019;51.034;3.728;2023-04-24T07:22:11;8.70;99.90
77829;DHT22;67019;51.034;3.728;2023-04-24T07:24:40;8.80;99.90
77829;DHT22;67019;51.034;3.728;2023-04-24T07:27:08;8.70;99.90
77829;DHT22;67019;51.034;3.728;2023-04-24T07:29:36;8.80;99.90
77829;DHT22;67019;51.034;3.728;2023-04-24T07:32:04;8.80;99.90
77829;DHT22;67019;51.034;3.728;2023-04-24T07:34:32;8.80;99.90
77829;DHT22;67019;51.034;3.728;2023-04-24T07:37:00;8.60;99.90
77829;DHT22;67019;51.034;3.728;2023-04-24T07:39:29;8.60;99.90
77829;DHT22;67019;51.034;3.728;2023-04-24T07:41:56;8.70;99.90
77829;DHT22;67019;51.034;3.728;2023-04-24T07:44:25;8.60;99.90
77829;DHT22;67019;51.034;3.728;2023-04-24T07:46:53;8.70;99.90
77829;DHT22;67019;51.034;3.728;2023-04-24T07:49:21;8.70;99.90
77829;DHT22;67019;51.034;3.728;2023-04-24T07:51:49;8.70;99.90
77829;DHT22;67019;51.034;3.728;2023-04-24T07:54:17;8.70;99.90
77829;DHT22;67019;51.034;3.728;2023-04-24T07:56:44;8.70;99.90
77829;DHT22;67019;51.034;3.728;2023-04-24T07:59:12;8.70;99.90
77829;DHT22;67019;51.034;3.728;2023-04-24T08:01:40;8.70;99.90
77829;DHT22;67019;51.034;3.728;2023-04-24T08:04:07;9.00;99.90
77829;DHT22;67019;51.034;3.728;2023-04-24T08:06:35;9.10;99.90
77829;DHT22;67019;51.034;3.728;2023-04-24T08:09:03;9.30;99.90
77829;DHT22;67019;51.034;3.728;2023-04-24T08:11:30;9.70;99.60
77829;DHT22;67019;51.034;3.728;2023-04-24T08:13:59;9.90;97.80
77829;DHT22;67019;51.034;3.728;2023-04-24T08:16:28;10.10;97.20
77829;DHT22;67019;51.034;3.728;2023-04-24T08:18:56;9.90;96.60
77829;DHT22;67019;51.034;3.728;2023-04-24T08:21:23;9.80;96.20
77829;DHT22;67019;51.034;3.728;2023-04-24T08:23:52;9.70;96.90
77829;DHT22;67019;51.034;3.728;2023-04-24T08:26:22;9.50;96.70
77829;DHT22;67019;51.034;3.728;2023-04-24T08:28:49;9.60;96.50
77829;DHT22;67019;51.034;3.728;2023-04-24T08:31:34;9.80;97.10
77829;DHT22;67019;51.034;3.728;2023-04-24T08:34:05;9.90;95.40
77829;DHT22;67019;51.034;3.728;2023-04-24T08:36:32;10.00;95.20
77829;DHT22;67019;51.034;3.728;2023-04-24T08:39:00;10.10;95.90
77829;DHT22;67019;51.034;3.728;2023-04-24T08:41:28;10.20;93.90
77829;DHT22;67019;51.034;3.728;2023-04-24T08:43:55;10.50;94.60
77829;DHT22;67019;51.034;3.728;2023-04-24T08:46:24;10.60;93.70
77829;DHT22;67019;51.034;3.728;2023-04-24T08:48:52;10.40;95.00
77829;DHT22;67019;51.034;3.728;2023-04-24T08:51:22;10.40;94.60
77829;DHT22;67019;51.034;3.728;2023-04-24T08:53:52;10.00;94.00
77829;DHT22;67019;51.034;3.728;2023-04-24T08:56:24;10.20;94.20
77829;DHT22;67019;51.034;3.728;2023-04-24T08:58:53;10.30;93.00
77829;DHT22;67019;51.034;3.728;2023-04-24T09:01:21;10.10;92.20
77829;DHT22;67019;51.034;3.728;2023-04-24T09:03:51;10.10;92.30
77829;DHT22;67019;51.034;3.728;2023-04-24T09:06:21;10.30;92.60
77829;DHT22;67019;51.034;3.728;2023-04-24T09:08:50;10.30;92.20
77829;DHT22;67019;51.034;3.728;2023-04-24T09:11:19;10.50;92.40
77829;DHT22;67019;51.034;3.728;2023-04-24T09:13:47;10.30;92.60
77829;DHT22;67019;51.034;3.728;2023-04-24T09:16:15;10.70;92.30
77829;DHT22;67019;51.034;3.728;2023-04-24T09:18:43;10.40;92.50
77829;DHT22;67019;51.034;3.728;2023-04-24T09:21:11;10.40;93.30
77829;DHT22;67019;51.034;3.728;2023-04-24T09:23:40;10.50;92.30
77829;DHT22;67019;51.034;3.728;2023-04-24T09:26:09;10.50;91.20
77829;DHT22;67019;51.034;3.728;2023-04-24T09:28:38;10.50;91.60
77829;DHT22;67019;51.034;3.728;2023-04-24T09:31:14;10.80;91.10
77829;DHT22;67019;51.034;3.728;2023-04-24T09:33:58;11.10;90.50
77829;DHT22;67019;51.034;3.728;2023-04-24T09:36:38;10.90;90.00
77829;DHT22;67019;51.034;3.728;2023-04-24T09:39:06;10.50;90.40
77829;DHT22;67019;51.034;3.728;2023-04-24T09:41:49;10.80;90.50
77829;DHT22;67019;51.034;3.728;2023-04-24T09:44:21;11.00;89.20
77829;DHT22;67019;51.034;3.728;2023-04-24T09:46:57;10.70;90.60
77829;DHT22;67019;51.034;3.728;2023-04-24T09:49:28;10.80;89.70
77829;DHT22;67019;51.034;3.728;2023-04-24T09:52:07;11.00;88.00
77829;DHT22;67019;51.034;3.728;2023-04-24T09:54:35;10.60;89.40
77829;DHT22;67019;51.034;3.728;2023-04-24T09:57:05;10.70;89.70
77829;DHT22;67019;51.034;3.728;2023-04-24T09:59:34;10.70;89.70
77829;DHT22;67019;51.034;3.728;2023-04-24T10:02:01;11.00;88.80
77829;DHT22;67019;51.034;3.728;2023-04-24T10:04:29;10.80;89.40
77829;DHT22;67019;51.034;3.728;2023-04-24T10:06:57;10.80;90.00
77829;DHT22;67019;51.034;3.728;2023-04-24T10:09:26;11.00;89.70
77829;DHT22;67019;51.034;3.728;2023-04-24T10:11:54;11.30;88.40
77829;DHT22;67019;51.034;3.728;2023-04-24T10:14:24;11.40;86.00
77829;DHT22;67019;51.034;3.728;2023-04-24T10:16:55;11.10;88.40
77829;DHT22;67019;51.034;3.728;2023-04-24T10:19:26;10.80;88.50
77829;DHT22;67019;51.034;3.728;2023-04-24T10:21:54;11.10;87.40
77829;DHT22;67019;51.034;3.728;2023-04-24T10:24:22;11.10;87.20
77829;DHT22;67019;51.034;3.728;2023-04-24T10:26:49;11.30;86.60
77829;DHT22;67019;51.034;3.728;2023-04-24T10:29:18;11.50;86.00
77829;DHT22;67019;51.034;3.728;2023-04-24T10:31:47;11.30;87.20
77829;DHT22;67019;51.034;3.728;2023-04-24T10:34:16;11.30;86.00
77829;DHT22;67019;51.034;3.728;2023-04-24T10:36:51;11.40;86.40
77829;DHT22;67019;51.034;3.728;2023-04-24T10:39:15;11.20;85.80
77829;DHT22;67019;51.034;3.728;2023-04-24T10:41:43;11.60;85.40
77829;DHT22;67019;51.034;3.728;2023-04-24T10:44:14;11.10;86.50
77829;DHT22;67019;51.034;3.728;2023-04-24T10:46:46;11.00;88.60
77829;DHT22;67019;51.034;3.728;2023-04-24T10:49:16;11.40;86.30
77829;DHT22;67019;51.034;3.728;2023-04-24T10:51:51;11.60;84.90
77829;DHT22;67019;51.034;3.728;2023-04-24T10:54:36;11.30;86.00
77829;DHT22;67019;51.034;3.728;2023-04-24T10:57:27;11.40;85.80
77829;DHT22;67019;51.034;3.728;2023-04-24T11:00:13;11.60;83.70
77829;DHT22;67019;51.034;3.728;2023-04-24T11:02:42;10.90;86.50
77829;DHT22;67019;51.034;3.728;2023-04-24T11:05:16;11.10;87.20
77829;DHT22;67019;51.034;3.728;2023-04-24T11:16:51;11.40;86.50
77829;DHT22;67019;51.034;3.728;2023-04-24T11:22:02;12.00;83.60
77829;DHT22;67019;51.034;3.728;2023-04-24T11:24:39;11.80;84.00
77829;DHT22;67019;51.034;3.728;2023-04-24T11:27:17;11.80;83.70
77829;DHT22;67019;51.034;3.728;2023-04-24T11:35:05;12.50;82.20
77829;DHT22;67019;51.034;3.728;2023-04-24T11:37:39;12.40;82.40
77829;DHT22;67019;51.034;3.728;2023-04-24T11:40:11;11.90;80.00
77829;DHT22;67019;51.034;3.728;2023-04-24T11:42:45;11.90;80.20
77829;DHT22;67019;51.034;3.728;2023-04-24T11:45:22;12.00;81.60
77829;DHT22;67019;51.034;3.728;2023-04-24T11:47:47;11.80;81.40
77829;DHT22;67019;51.034;3.728;2023-04-24T11:50:17;11.90;82.80
77829;DHT22;67019;51.034;3.728;2023-04-24T11:52:46;11.80;82.30
77829;DHT22;67019;51.034;3.728;2023-04-24T11:57:55;11.80;79.50
77829;DHT22;67019;51.034;3.728;2023-04-24T12:00:27;12.10;79.70
77829;DHT22;67019;51.034;3.728;2023-04-24T12:03:09;12.80;77.10
77829;DHT22;67019;51.034;3.728;2023-04-24T12:05:38;13.00;77.20
77829;DHT22;67019;51.034;3.728;2023-04-24T12:08:06;11.10;77.30
77829;DHT22;67019;51.034;3.728;2023-04-24T12:10:35;12.40;77.90
77829;DHT22;67019;51.034;3.728;2023-04-24T12:13:03;12.50;76.70
77829;DHT22;67019;51.034;3.728;2023-04-24T12:15:30;12.10;77.30
77829;DHT22;67019;51.034;3.728;2023-04-24T12:17:59;12.50;78.50
77829;DHT22;67019;51.034;3.728;2023-04-24T12:20:31;12.80;76.50
77829;DHT22;67019;51.034;3.728;2023-04-24T12:23:02;13.10;76.40
77829;DHT22;67019;51.034;3.728;2023-04-24T12:25:32;12.60;75.40
77829;DHT22;67019;51.034;3.728;2023-04-24T12:28:13;12.90;76.20
77829;DHT22;67019;51.034;3.728;2023-04-24T12:30:46;12.30;78.90
77829;DHT22;67019;51.034;3.728;2023-04-24T12:33:19;12.80;78.50
77829;DHT22;67019;51.034;3.728;2023-04-24T12:35:48;12.20;79.10
77829;DHT22;67019;51.034;3.728;2023-04-24T12:38:21;12.90;76.10
77829;DHT22;67019;51.034;3.728;2023-04-24T12:40:47;13.20;76.70
77829;DHT22;67019;51.034;3.728;2023-04-24T12:43:16;13.50;74.60
77829;DHT22;67019;51.034;3.728;2023-04-24T12:45:47;12.70;75.30
77829;DHT22;67019;51.034;3.728;2023-04-24T12:48:15;13.00;75.90
77829;DHT22;67019;51.034;3.728;2023-04-24T12:50:43;13.60;74.80
77829;DHT22;67019;51.034;3.728;2023-04-24T12:53:11;13.60;72.90
77829;DHT22;67019;51.034;3.728;2023-04-24T12:55:39;13.50;73.40
77829;DHT22;67019;51.034;3.728;2023-04-24T12:58:07;13.40;72.40
77829;DHT22;67019;51.034;3.728;2023-04-24T13:00:35;13.10;73.10
77829;DHT22;67019;51.034;3.728;2023-04-24T13:03:03;13.30;74.20
77829;DHT22;67019;51.034;3.728;2023-04-24T13:05:30;13.10;73.10
77829;DHT22;67019;51.034;3.728;2023-04-24T13:07:58;12.10;76.70
77829;DHT22;67019;51.034;3.728;2023-04-24T13:10:26;11.20;76.40
77829;DHT22;67019;51.034;3.728;2023-04-24T13:12:53;12.20;75.50
77829;DHT22;67019;51.034;3.728;2023-04-24T13:15:21;12.40;73.60
77829;DHT22;67019;51.034;3.728;2023-04-24T13:17:49;12.10;74.00
77829;DHT22;67019;51.034;3.728;2023-04-24T13:20:17;12.30;73.70
77829;DHT22;67019;51.034;3.728;2023-04-24T13:22:47;12.80;73.90
77829;DHT22;67019;51.034;3.728;2023-04-24T13:25:14;13.00;73.20
77829;DHT22;67019;51.034;3.728;2023-04-24T13:27:43;12.90;74.20
77829;DHT22;67019;51.034;3.728;2023-04-24T13:30:11;13.00;72.00
77829;DHT22;67019;51.034;3.728;2023-04-24T13:32:39;12.70;73.40
77829;DHT22;67019;51.034;3.728;2023-04-24T13:35:07;12.30;75.50
77829;DHT22;67019;51.034;3.728;2023-04-24T13:37:35;12.50;73.50
77829;DHT22;67019;51.034;3.728;2023-04-24T13:40:02;12.70;73.20
77829;DHT22;67019;51.034;3.728;2023-04-24T13:42:32;12.80;72.20
77829;DHT22;67019;51.034;3.728;2023-04-24T13:45:00;12.80;73.10
77829;DHT22;67019;51.034;3.728;2023-04-24T13:47:27;12.80;75.30
77829;DHT22;67019;51.034;3.728;2023-04-24T13:49:55;12.90;72.90
77829;DHT22;67019;51.034;3.728;2023-04-24T13:52:23;12.30;74.60
77829;DHT22;67019;51.034;3.728;2023-04-24T13:54:50;12.60;77.00
77829;DHT22;67019;51.034;3.728;2023-04-24T13:57:19;13.60;73.70
77829;DHT22;67019;51.034;3.728;2023-04-24T13:59:47;14.80;65.80
77829;DHT22;67019;51.034;3.728;2023-04-24T14:02:15;15.50;63.80
77829;DHT22;67019;51.034;3.728;2023-04-24T14:04:42;16.00;62.60
77829;DHT22;67019;51.034;3.728;2023-04-24T14:07:10;16.70;58.60
77829;DHT22;67019;51.034;3.728;2023-04-24T14:09:38;17.10;56.30
77829;DHT22;67019;51.034;3.728;2023-04-24T14:12:05;15.00;63.20
77829;DHT22;67019;51.034;3.728;2023-04-24T14:14:33;15.50;60.80
77829;DHT22;67019;51.034;3.728;2023-04-24T14:17:01;15.70;58.70
77829;DHT22;67019;51.034;3.728;2023-04-24T14:19:28;14.70;62.60
77829;DHT22;67019;51.034;3.728;2023-04-24T14:21:56;15.80;58.20
77829;DHT22;67019;51.034;3.728;2023-04-24T14:24:25;16.20;59.20
77829;DHT22;67019;51.034;3.728;2023-04-24T14:26:52;16.60;55.70
77829;DHT22;67019;51.034;3.728;2023-04-24T14:29:20;16.80;56.90
77829;DHT22;67019;51.034;3.728;2023-04-24T14:31:47;16.90;55.10
77829;DHT22;67019;51.034;3.728;2023-04-24T14:34:20;16.00;58.30
77829;DHT22;67019;51.034;3.728;2023-04-24T14:36:44;14.90;61.00
77829;DHT22;67019;51.034;3.728;2023-04-24T14:39:12;14.20;64.80
77829;DHT22;67019;51.034;3.728;2023-04-24T14:41:39;14.50;62.30
77829;DHT22;67019;51.034;3.728;2023-04-24T14:44:10;16.00;57.20
77829;DHT22;67019;51.034;3.728;2023-04-24T14:46:37;14.50;58.00
77829;DHT22;67019;51.034;3.728;2023-04-24T14:49:04;15.00;58.80
77829;DHT22;67019;51.034;3.728;2023-04-24T14:51:34;14.70;61.10
77829;DHT22;67019;51.034;3.728;2023-04-24T14:54:01;14.90;60.70
77829;DHT22;67019;51.034;3.728;2023-04-24T14:56:29;14.40;63.70
77829;DHT22;67019;51.034;3.728;2023-04-24T14:58:57;13.70;65.40
77829;DHT22;67019;51.034;3.728;2023-04-24T15:01:24;13.50;67.90
77829;DHT22;67019;51.034;3.728;2023-04-24T15:03:52;13.60;67.00
77829;DHT22;67019;51.034;3.728;2023-04-24T15:06:21;12.80;69.80
77829;DHT22;67019;51.034;3.728;2023-04-24T15:08:50;13.30;68.70
77829;DHT22;67019;51.034;3.728;2023-04-24T15:11:19;13.40;68.10
77829;DHT22;67019;51.034;3.728;2023-04-24T15:13:46;13.50;68.80
77829;DHT22;67019;51.034;3.728;2023-04-24T15:16:14;13.80;67.40
77829;DHT22;67019;51.034;3.728;2023-04-24T15:18:42;13.30;69.70
77829;DHT22;67019;51.034;3.728;2023-04-24T15:21:09;13.10;69.50
77829;DHT22;67019;51.034;3.728;2023-04-24T15:23:39;13.10;68.80
77829;DHT22;67019;51.034;3.728;2023-04-24T15:26:06;13.20;68.20
77829;DHT22;67019;51.034;3.728;2023-04-24T15:28:34;12.40;69.50
77829;DHT22;67019;51.034;3.728;2023-04-24T15:31:02;12.70;68.40
77829;DHT22;67019;51.034;3.728;2023-04-24T15:33:29;12.90;67.50
77829;DHT22;67019;51.034;3.728;2023-04-24T15:35:57;12.90;67.10
77829;DHT22;67019;51.034;3.728;2023-04-24T15:38:24;13.00;66.80
77829;DHT22;67019;51.034;3.728;2023-04-24T15:40:52;12.70;67.00
77829;DHT22;67019;51.034;3.728;2023-04-24T15:43:20;12.60;68.60
77829;DHT22;67019;51.034;3.728;2023-04-24T15:45:51;12.90;68.20
77829;DHT22;67019;51.034;3.728;2023-04-24T15:50:48;13.10;68.10
77829;DHT22;67019;51.034;3.728;2023-04-24T15:53:16;12.30;70.20
77829;DHT22;67019;51.034;3.728;2023-04-24T15:55:45;12.90;68.00
77829;DHT22;67019;51.034;3.728;2023-04-24T15:58:13;13.90;65.20
77829;DHT22;67019;51.034;3.728;2023-04-24T16:00:41;15.00;61.40
77829;DHT22;67019;51.034;3.728;2023-04-24T16:03:08;17.10;55.50
77829;DHT22;67019;51.034;3.728;2023-04-24T16:05:36;16.30;56.20
77829;DHT22;67019;51.034;3.728;2023-04-24T16:08:05;14.30;60.30
77829;DHT22;67019;51.034;3.728;2023-04-24T16:10:33;13.50;66.80
77829;DHT22;67019;51.034;3.728;2023-04-24T16:13:00;12.60;69.20
77829;DHT22;67019;51.034;3.728;2023-04-24T16:15:29;13.10;68.50
77829;DHT22;67019;51.034;3.728;2023-04-24T16:17:57;13.40;67.90
77829;DHT22;67019;51.034;3.728;2023-04-24T16:20:25;13.20;67.90
77829;DHT22;67019;51.034;3.728;2023-04-24T16:22:52;12.30;72.20
77829;DHT22;67019;51.034;3.728;2023-04-24T16:25:20;12.40;73.60